sensor_id;sensor_type;location;lat;lon;timestamp;temperature;humidity
10431;DHT22;5262;59.958;17.726;2023-06-05T00:01:20;8.10;99.90
10431;DHT22;5262;59.958;17.726;2023-06-05T00:03:46;8.00;99.90
10431;DHT22;5262;59.958;17.726;2023-06-05T00:06:11;8.10;99.90
10431;DHT22;5262;59.958;17.726;2023-06-05T00:08:37;8.00;99.90
10431;DHT22;5262;59.958;17.726;2023-06-05T00:11:03;7.90;99.90
10431;DHT22;5262;59.958;17.726;2023-06-05T00:13:28;7.80;99.90
10431;DHT22;5262;59.958;17.726;2023-06-05T00:15:54;7.70;99.90
10431;DHT22;5262;59.958;17.726;2023-06-05T00:18:20;7.70;99.90
10431;DHT22;5262;59.958;17.726;2023-06-05T00:20:46;7.60;99.90
10431;DHT22;5262;59.958;17.726;2023-06-05T00:23:12;7.50;99.90
10431;DHT22;5262;59.958;17.726;2023-06-05T00:25:38;7.50;99.90
10431;DHT22;5262;59.958;17.726;2023-06-05T00:28:03;7.40;99.90
10431;DHT22;5262;59.958;17.726;2023-06-05T00:30:29;7.50;99.90
10431;DHT22;5262;59.958;17.726;2023-06-05T00:32:56;7.50;99.90
10431;DHT22;5262;59.958;17.726;2023-06-05T00:35:21;7.50;99.90
10431;DHT22;5262;59.958;17.726;2023-06-05T00:37:47;7.50;99.90
10431;DHT22;5262;59.958;17.726;2023-06-05T00:40:13;7.60;99.90
10431;DHT22;5262;59.958;17.726;2023-06-05T00:42:39;7.50;99.90
10431;DHT22;5262;59.958;17.726;2023-06-05T00:45:05;7.50;99.90
10431;DHT22;5262;59.958;17.726;2023-06-05T00:47:32;7.50;99.90
10431;DHT22;5262;59.958;17.726;2023-06-05T00:49:58;7.40;99.90
10431;DHT22;5262;59.958;17.726;2023-06-05T00:52:25;7.30;99.90
10431;DHT22;5262;59.958;17.726;2023-06-05T00:54:51;7.20;99.90
10431;DHT22;5262;59.958;17.726;2023-06-05T00:57:17;7.20;99.90
10431;DHT22;5262;59.958;17.726;2023-06-05T00:59:43;7.10;99.90
10431;DHT22;5262;59.958;17.726;2023-06-05T01:02:13;7.00;99.90
10431;DHT22;5262;59.958;17.726;2023-06-05T01:04:40;7.00;99.90
10431;DHT22;5262;59.958;17.726;2023-06-05T01:07:10;7.00;99.90
10431;DHT22;5262;59.958;17.726;2023-06-05T01:09:37;6.90;99.90
10431;DHT22;5262;59.958;17.726;2023-06-05T01:14:45;6.80;99.90
10431;DHT22;5262;59.958;17.726;2023-06-05T01:17:13;6.70;99.90
10431;DHT22;5262;59.958;17.726;2023-06-05T01:19:40;6.70;99.90
10431;DHT22;5262;59.958;17.726;2023-06-05T01:22:06;6.60;99.90
10431;DHT22;5262;59.958;17.726;2023-06-05T01:24:32;6.60;99.90
10431;DHT22;5262;59.958;17.726;2023-06-05T01:27:27;6.60;99.90
10431;DHT22;5262;59.958;17.726;2023-06-05T01:32:39;6.50;99.90
10431;DHT22;5262;59.958;17.726;2023-06-05T01:35:08;6.40;99.90
10431;DHT22;5262;59.958;17.726;2023-06-05T01:37:38;6.30;99.90
10431;DHT22;5262;59.958;17.726;2023-06-05T01:40:10;6.30;99.90
10431;DHT22;5262;59.958;17.726;2023-06-05T01:42:38;6.30;99.90
10431;DHT22;5262;59.958;17.726;2023-06-05T01:45:06;6.40;99.90
10431;DHT22;5262;59.958;17.726;2023-06-05T01:47:36;6.30;99.90
10431;DHT22;5262;59.958;17.726;2023-06-05T01:50:03;6.40;99.90
10431;DHT22;5262;59.958;17.726;2023-06-05T01:52:29;6.40;99.90
10431;DHT22;5262;59.958;17.726;2023-06-05T01:54:55;6.40;99.90
10431;DHT22;5262;59.958;17.726;2023-06-05T01:57:28;6.40;99.90
10431;DHT22;5262;59.958;17.726;2023-06-05T01:59:54;6.50;99.90
10431;DHT22;5262;59.958;17.726;2023-06-05T02:02:21;6.40;99.90
10431;DHT22;5262;59.958;17.726;2023-06-05T02:04:47;6.30;99.90
10431;DHT22;5262;59.958;17.726;2023-06-05T02:07:14;6.40;99.90
10431;DHT22;5262;59.958;17.726;2023-06-05T02:09:42;6.40;99.90
10431;DHT22;5262;59.958;17.726;2023-06-05T02:12:08;6.40;99.90
10431;DHT22;5262;59.958;17.726;2023-06-05T02:14:34;6.40;99.90
10431;DHT22;5262;59.958;17.726;2023-06-05T02:17:04;6.50;99.90
10431;DHT22;5262;59.958;17.726;2023-06-05T02:19:33;6.60;99.90
10431;DHT22;5262;59.958;17.726;2023-06-05T02:21:58;6.70;99.90
10431;DHT22;5262;59.958;17.726;2023-06-05T02:24:24;6.60;99.90
10431;DHT22;5262;59.958;17.726;2023-06-05T02:26:51;6.60;99.90
10431;DHT22;5262;59.958;17.726;2023-06-05T02:29:17;6.70;99.90
10431;DHT22;5262;59.958;17.726;2023-06-05T02:31:43;6.70;99.90
10431;DHT22;5262;59.958;17.726;2023-06-05T02:34:09;6.60;99.90
10431;DHT22;5262;59.958;17.726;2023-06-05T02:36:35;6.60;99.90
10431;DHT22;5262;59.958;17.726;2023-06-05T02:39:01;6.60;99.90
10431;DHT22;5262;59.958;17.726;2023-06-05T02:41:27;6.80;99.90
10431;DHT22;5262;59.958;17.726;2023-06-05T02:43:53;6.80;99.90
10431;DHT22;5262;59.958;17.726;2023-06-05T02:46:22;6.90;99.90
10431;DHT22;5262;59.958;17.726;2023-06-05T02:48:50;6.90;99.90
10431;DHT22;5262;59.958;17.726;2023-06-05T02:51:16;7.10;99.90
10431;DHT22;5262;59.958;17.726;2023-06-05T02:53:42;7.30;99.90
10431;DHT22;5262;59.958;17.726;2023-06-05T02:56:08;7.40;99.90
10431;DHT22;5262;59.958;17.726;2023-06-05T02:58:33;7.50;99.90
10431;DHT22;5262;59.958;17.726;2023-06-05T03:01:02;7.70;99.90
10431;DHT22;5262;59.958;17.726;2023-06-05T03:03:31;7.70;99.90
10431;DHT22;5262;59.958;17.726;2023-06-05T03:05:58;7.80;99.90
10431;DHT22;5262;59.958;17.726;2023-06-05T03:08:35;7.80;99.90
10431;DHT22;5262;59.958;17.726;2023-06-05T03:11:01;7.80;99.90
10431;DHT22;5262;59.958;17.726;2023-06-05T03:13:27;7.90;99.90
10431;DHT22;5262;59.958;17.726;2023-06-05T03:15:57;7.90;99.90
10431;DHT22;5262;59.958;17.726;2023-06-05T03:18:23;7.90;99.90
10431;DHT22;5262;59.958;17.726;2023-06-05T03:20:50;7.90;99.90
10431;DHT22;5262;59.958;17.726;2023-06-05T03:23:16;7.80;99.90
10431;DHT22;5262;59.958;17.726;2023-06-05T03:25:42;7.80;99.90
10431;DHT22;5262;59.958;17.726;2023-06-05T03:28:08;7.70;99.90
10431;DHT22;5262;59.958;17.726;2023-06-05T03:30:33;7.70;99.90
10431;DHT22;5262;59.958;17.726;2023-06-05T03:32:59;7.80;99.90
10431;DHT22;5262;59.958;17.726;2023-06-05T03:35:25;7.80;99.90
10431;DHT22;5262;59.958;17.726;2023-06-05T03:37:51;7.80;99.90
10431;DHT22;5262;59.958;17.726;2023-06-05T03:40:17;7.80;99.90
10431;DHT22;5262;59.958;17.726;2023-06-05T03:42:43;7.80;99.90
10431;DHT22;5262;59.958;17.726;2023-06-05T03:45:10;7.80;99.90
10431;DHT22;5262;59.958;17.726;2023-06-05T03:47:36;7.80;99.90
10431;DHT22;5262;59.958;17.726;2023-06-05T03:50:01;7.80;99.90
10431;DHT22;5262;59.958;17.726;2023-06-05T03:52:28;7.90;99.90
10431;DHT22;5262;59.958;17.726;2023-06-05T03:54:54;8.10;99.90
10431;DHT22;5262;59.958;17.726;2023-06-05T03:57:21;8.30;99.90
10431;DHT22;5262;59.958;17.726;2023-06-05T03:59:46;8.50;99.90
10431;DHT22;5262;59.958;17.726;2023-06-05T04:02:13;8.60;99.90
10431;DHT22;5262;59.958;17.726;2023-06-05T04:04:38;8.80;99.90
10431;DHT22;5262;59.958;17.726;2023-06-05T04:07:05;8.90;99.90
10431;DHT22;5262;59.958;17.726;2023-06-05T04:09:30;9.20;99.90
10431;DHT22;5262;59.958;17.726;2023-06-05T04:11:57;9.40;99.90
10431;DHT22;5262;59.958;17.726;2023-06-05T04:14:23;9.60;99.90
10431;DHT22;5262;59.958;17.726;2023-06-05T04:16:49;9.80;99.90
10431;DHT22;5262;59.958;17.726;2023-06-05T04:19:14;10.00;99.90
10431;DHT22;5262;59.958;17.726;2023-06-05T04:21:40;10.20;99.90
10431;DHT22;5262;59.958;17.726;2023-06-05T04:24:08;10.40;99.90
10431;DHT22;5262;59.958;17.726;2023-06-05T04:26:36;10.50;99.90
10431;DHT22;5262;59.958;17.726;2023-06-05T04:29:02;10.60;99.90
10431;DHT22;5262;59.958;17.726;2023-06-05T04:31:30;10.80;99.90
10431;DHT22;5262;59.958;17.726;2023-06-05T04:33:56;10.90;99.90
10431;DHT22;5262;59.958;17.726;2023-06-05T04:36:22;10.90;99.90
10431;DHT22;5262;59.958;17.726;2023-06-05T04:38:48;10.90;99.90
10431;DHT22;5262;59.958;17.726;2023-06-05T04:41:13;11.00;99.90
10431;DHT22;5262;59.958;17.726;2023-06-05T04:43:39;10.90;99.90
10431;DHT22;5262;59.958;17.726;2023-06-05T04:46:05;10.90;99.90
10431;DHT22;5262;59.958;17.726;2023-06-05T04:48:31;10.90;99.90
10431;DHT22;5262;59.958;17.726;2023-06-05T04:50:56;11.00;99.90
10431;DHT22;5262;59.958;17.726;2023-06-05T04:53:23;11.10;99.90
10431;DHT22;5262;59.958;17.726;2023-06-05T04:55:49;11.10;99.90
10431;DHT22;5262;59.958;17.726;2023-06-05T04:58:14;11.10;99.90
10431;DHT22;5262;59.958;17.726;2023-06-05T05:00:42;11.20;99.90
10431;DHT22;5262;59.958;17.726;2023-06-05T05:03:10;11.30;99.90
10431;DHT22;5262;59.958;17.726;2023-06-05T05:05:39;11.40;99.90
10431;DHT22;5262;59.958;17.726;2023-06-05T05:08:05;11.40;99.90
10431;DHT22;5262;59.958;17.726;2023-06-05T05:10:31;11.50;99.90
10431;DHT22;5262;59.958;17.726;2023-06-05T05:12:57;11.50;99.90
10431;DHT22;5262;59.958;17.726;2023-06-05T05:15:29;11.70;99.90
10431;DHT22;5262;59.958;17.726;2023-06-05T05:17:55;11.80;99.90
10431;DHT22;5262;59.958;17.726;2023-06-05T05:20:22;11.80;99.90
10431;DHT22;5262;59.958;17.726;2023-06-05T05:22:48;11.90;99.90
10431;DHT22;5262;59.958;17.726;2023-06-05T05:25:13;11.90;99.90
10431;DHT22;5262;59.958;17.726;2023-06-05T05:27:40;12.20;99.90
10431;DHT22;5262;59.958;17.726;2023-06-05T05:30:06;12.40;99.90
10431;DHT22;5262;59.958;17.726;2023-06-05T05:32:32;12.60;99.90
10431;DHT22;5262;59.958;17.726;2023-06-05T05:34:58;12.90;99.90
10431;DHT22;5262;59.958;17.726;2023-06-05T05:37:24;13.10;99.90
10431;DHT22;5262;59.958;17.726;2023-06-05T05:39:51;13.30;99.90
10431;DHT22;5262;59.958;17.726;2023-06-05T05:42:17;13.60;99.90
10431;DHT22;5262;59.958;17.726;2023-06-05T05:44:43;13.60;99.90
10431;DHT22;5262;59.958;17.726;2023-06-05T05:47:10;14.00;99.90
10431;DHT22;5262;59.958;17.726;2023-06-05T05:49:36;14.10;99.90
10431;DHT22;5262;59.958;17.726;2023-06-05T05:52:02;14.20;99.90
10431;DHT22;5262;59.958;17.726;2023-06-05T05:54:28;14.20;99.90
10431;DHT22;5262;59.958;17.726;2023-06-05T05:56:54;14.40;99.90
10431;DHT22;5262;59.958;17.726;2023-06-05T05:59:20;14.70;99.90
10431;DHT22;5262;59.958;17.726;2023-06-05T06:01:45;15.00;99.90
10431;DHT22;5262;59.958;17.726;2023-06-05T06:04:11;15.20;99.90
10431;DHT22;5262;59.958;17.726;2023-06-05T06:06:37;15.30;99.90
10431;DHT22;5262;59.958;17.726;2023-06-05T06:09:05;15.80;99.90
10431;DHT22;5262;59.958;17.726;2023-06-05T06:11:33;15.90;99.90
10431;DHT22;5262;59.958;17.726;2023-06-05T06:13:59;16.20;99.90
10431;DHT22;5262;59.958;17.726;2023-06-05T06:16:25;16.40;99.20
10431;DHT22;5262;59.958;17.726;2023-06-05T06:18:50;16.60;98.80
10431;DHT22;5262;59.958;17.726;2023-06-05T06:21:17;17.10;98.20
10431;DHT22;5262;59.958;17.726;2023-06-05T06:23:44;17.30;95.10
10431;DHT22;5262;59.958;17.726;2023-06-05T06:26:10;17.30;95.20
10431;DHT22;5262;59.958;17.726;2023-06-05T06:28:37;17.80;95.60
10431;DHT22;5262;59.958;17.726;2023-06-05T06:31:03;18.30;94.40
10431;DHT22;5262;59.958;17.726;2023-06-05T06:33:29;19.10;93.00
10431;DHT22;5262;59.958;17.726;2023-06-05T06:35:55;19.20;93.60
10431;DHT22;5262;59.958;17.726;2023-06-05T06:38:24;19.80;90.20
10431;DHT22;5262;59.958;17.726;2023-06-05T06:40:58;19.50;87.50
10431;DHT22;5262;59.958;17.726;2023-06-05T06:43:24;19.40;87.80
10431;DHT22;5262;59.958;17.726;2023-06-05T06:45:50;20.10;84.20
10431;DHT22;5262;59.958;17.726;2023-06-05T06:48:16;19.40;83.40
10431;DHT22;5262;59.958;17.726;2023-06-05T06:50:46;19.50;86.20
10431;DHT22;5262;59.958;17.726;2023-06-05T06:53:11;19.70;85.50
10431;DHT22;5262;59.958;17.726;2023-06-05T06:55:37;19.20;83.90
10431;DHT22;5262;59.958;17.726;2023-06-05T06:58:04;19.10;86.40
10431;DHT22;5262;59.958;17.726;2023-06-05T07:00:30;18.70;86.10
10431;DHT22;5262;59.958;17.726;2023-06-05T07:02:56;18.70;89.20
10431;DHT22;5262;59.958;17.726;2023-06-05T07:05:21;18.60;88.50
10431;DHT22;5262;59.958;17.726;2023-06-05T07:07:48;18.80;87.60
10431;DHT22;5262;59.958;17.726;2023-06-05T07:10:13;19.40;86.40
10431;DHT22;5262;59.958;17.726;2023-06-05T07:12:39;18.90;86.40
10431;DHT22;5262;59.958;17.726;2023-06-05T07:15:06;19.40;82.80
10431;DHT22;5262;59.958;17.726;2023-06-05T07:17:31;19.90;78.70
10431;DHT22;5262;59.958;17.726;2023-06-05T07:19:57;20.70;79.90
10431;DHT22;5262;59.958;17.726;2023-06-05T07:22:23;21.50;76.60
10431;DHT22;5262;59.958;17.726;2023-06-05T07:24:52;22.30;75.20
10431;DHT22;5262;59.958;17.726;2023-06-05T07:27:19;22.40;67.40
10431;DHT22;5262;59.958;17.726;2023-06-05T07:29:46;22.90;71.50
10431;DHT22;5262;59.958;17.726;2023-06-05T07:32:12;24.30;68.70
10431;DHT22;5262;59.958;17.726;2023-06-05T07:34:38;25.40;63.80
10431;DHT22;5262;59.958;17.726;2023-06-05T07:37:04;24.20;61.20
10431;DHT22;5262;59.958;17.726;2023-06-05T07:39:30;24.90;61.50
10431;DHT22;5262;59.958;17.726;2023-06-05T07:41:56;25.40;59.50
10431;DHT22;5262;59.958;17.726;2023-06-05T07:44:22;25.90;55.90
10431;DHT22;5262;59.958;17.726;2023-06-05T07:46:49;25.60;54.50
10431;DHT22;5262;59.958;17.726;2023-06-05T07:49:15;26.70;54.80
10431;DHT22;5262;59.958;17.726;2023-06-05T07:51:47;27.20;51.60
10431;DHT22;5262;59.958;17.726;2023-06-05T07:54:15;26.50;48.10
10431;DHT22;5262;59.958;17.726;2023-06-05T07:56:45;27.30;47.70
10431;DHT22;5262;59.958;17.726;2023-06-05T07:59:14;27.00;48.50
10431;DHT22;5262;59.958;17.726;2023-06-05T08:01:40;26.90;47.80
10431;DHT22;5262;59.958;17.726;2023-06-05T08:04:07;26.90;51.60
10431;DHT22;5262;59.958;17.726;2023-06-05T08:06:32;26.80;49.20
10431;DHT22;5262;59.958;17.726;2023-06-05T08:09:01;27.70;49.00
10431;DHT22;5262;59.958;17.726;2023-06-05T08:11:27;27.70;46.70
10431;DHT22;5262;59.958;17.726;2023-06-05T08:13:54;27.70;46.60
10431;DHT22;5262;59.958;17.726;2023-06-05T08:16:20;26.50;45.60
10431;DHT22;5262;59.958;17.726;2023-06-05T08:18:46;27.50;48.90
10431;DHT22;5262;59.958;17.726;2023-06-05T08:21:12;29.20;45.20
10431;DHT22;5262;59.958;17.726;2023-06-05T08:23:38;29.10;44.70
10431;DHT22;5262;59.958;17.726;2023-06-05T08:26:04;29.40;46.90
10431;DHT22;5262;59.958;17.726;2023-06-05T08:28:40;29.50;43.00
10431;DHT22;5262;59.958;17.726;2023-06-05T08:31:07;30.00;43.30
10431;DHT22;5262;59.958;17.726;2023-06-05T08:33:36;29.40;43.80
10431;DHT22;5262;59.958;17.726;2023-06-05T08:36:03;29.50;45.00
10431;DHT22;5262;59.958;17.726;2023-06-05T08:38:29;29.80;44.20
10431;DHT22;5262;59.958;17.726;2023-06-05T08:41:05;28.40;42.80
10431;DHT22;5262;59.958;17.726;2023-06-05T08:43:39;27.00;43.80
10431;DHT22;5262;59.958;17.726;2023-06-05T08:46:09;28.30;44.20
10431;DHT22;5262;59.958;17.726;2023-06-05T08:48:45;29.10;42.60
10431;DHT22;5262;59.958;17.726;2023-06-05T08:51:12;29.00;39.80
10431;DHT22;5262;59.958;17.726;2023-06-05T08:53:39;28.50;39.00
10431;DHT22;5262;59.958;17.726;2023-06-05T08:56:06;28.10;40.50
10431;DHT22;5262;59.958;17.726;2023-06-05T08:58:34;27.40;39.00
10431;DHT22;5262;59.958;17.726;2023-06-05T09:01:00;27.20;40.20
10431;DHT22;5262;59.958;17.726;2023-06-05T09:03:26;27.40;42.20
10431;DHT22;5262;59.958;17.726;2023-06-05T09:05:52;28.20;42.80
10431;DHT22;5262;59.958;17.726;2023-06-05T09:08:32;28.90;38.90
10431;DHT22;5262;59.958;17.726;2023-06-05T09:11:24;28.30;40.20
10431;DHT22;5262;59.958;17.726;2023-06-05T09:13:51;28.20;41.20
10431;DHT22;5262;59.958;17.726;2023-06-05T09:16:35;29.10;40.60
10431;DHT22;5262;59.958;17.726;2023-06-05T09:19:03;30.30;37.50
10431;DHT22;5262;59.958;17.726;2023-06-05T09:21:30;30.00;37.30
10431;DHT22;5262;59.958;17.726;2023-06-05T09:29:12;30.80;36.00
10431;DHT22;5262;59.958;17.726;2023-06-05T09:31:41;30.90;36.80
10431;DHT22;5262;59.958;17.726;2023-06-05T09:34:07;31.00;38.20
10431;DHT22;5262;59.958;17.726;2023-06-05T09:36:33;30.00;38.20
10431;DHT22;5262;59.958;17.726;2023-06-05T09:39:14;31.00;37.00
10431;DHT22;5262;59.958;17.726;2023-06-05T09:41:44;31.00;35.60
10431;DHT22;5262;59.958;17.726;2023-06-05T09:44:10;31.60;34.70
10431;DHT22;5262;59.958;17.726;2023-06-05T09:49:26;31.30;37.10
10431;DHT22;5262;59.958;17.726;2023-06-05T09:51:52;30.70;39.10
10431;DHT22;5262;59.958;17.726;2023-06-05T09:54:19;32.10;35.40
10431;DHT22;5262;59.958;17.726;2023-06-05T09:56:49;32.00;34.20
10431;DHT22;5262;59.958;17.726;2023-06-05T09:59:21;31.00;35.50
10431;DHT22;5262;59.958;17.726;2023-06-05T10:01:49;29.60;36.60
10431;DHT22;5262;59.958;17.726;2023-06-05T10:04:16;28.90;40.30
10431;DHT22;5262;59.958;17.726;2023-06-05T10:06:44;28.20;40.30
10431;DHT22;5262;59.958;17.726;2023-06-05T10:09:11;27.80;39.60
10431;DHT22;5262;59.958;17.726;2023-06-05T10:11:39;28.60;40.70
10431;DHT22;5262;59.958;17.726;2023-06-05T10:14:06;29.80;39.10
10431;DHT22;5262;59.958;17.726;2023-06-05T10:16:34;29.30;36.60
10431;DHT22;5262;59.958;17.726;2023-06-05T10:19:00;29.70;37.50
10431;DHT22;5262;59.958;17.726;2023-06-05T10:21:26;30.90;36.20
10431;DHT22;5262;59.958;17.726;2023-06-05T10:24:03;31.60;33.90
10431;DHT22;5262;59.958;17.726;2023-06-05T10:26:46;30.20;34.70
10431;DHT22;5262;59.958;17.726;2023-06-05T10:29:43;32.20;35.50
10431;DHT22;5262;59.958;17.726;2023-06-05T10:34:56;32.70;35.00
10431;DHT22;5262;59.958;17.726;2023-06-05T10:40:17;31.80;32.90
10431;DHT22;5262;59.958;17.726;2023-06-05T10:42:43;32.60;33.00
10431;DHT22;5262;59.958;17.726;2023-06-05T10:45:09;31.30;33.60
10431;DHT22;5262;59.958;17.726;2023-06-05T10:52:45;32.40;30.00
10431;DHT22;5262;59.958;17.726;2023-06-05T10:55:12;31.60;31.20
10431;DHT22;5262;59.958;17.726;2023-06-05T11:00:26;31.80;31.20
10431;DHT22;5262;59.958;17.726;2023-06-05T11:02:52;30.30;31.50
10431;DHT22;5262;59.958;17.726;2023-06-05T11:05:18;29.30;32.60
10431;DHT22;5262;59.958;17.726;2023-06-05T11:07:45;28.70;31.60
10431;DHT22;5262;59.958;17.726;2023-06-05T11:10:15;29.90;32.70
10431;DHT22;5262;59.958;17.726;2023-06-05T11:15:11;30.30;31.90
10431;DHT22;5262;59.958;17.726;2023-06-05T11:17:48;30.50;31.50
10431;DHT22;5262;59.958;17.726;2023-06-05T11:28:05;29.20;32.80
10431;DHT22;5262;59.958;17.726;2023-06-05T11:30:38;29.30;33.20
10431;DHT22;5262;59.958;17.726;2023-06-05T11:33:08;28.70;33.80
10431;DHT22;5262;59.958;17.726;2023-06-05T11:35:38;28.10;33.60
10431;DHT22;5262;59.958;17.726;2023-06-05T11:40:34;27.90;35.80
10431;DHT22;5262;59.958;17.726;2023-06-05T11:43:08;27.90;35.70
10431;DHT22;5262;59.958;17.726;2023-06-05T11:45:35;27.90;35.30
10431;DHT22;5262;59.958;17.726;2023-06-05T11:48:14;27.80;36.30
10431;DHT22;5262;59.958;17.726;2023-06-05T11:53:17;27.30;36.00
10431;DHT22;5262;59.958;17.726;2023-06-05T11:55:43;27.30;39.00
10431;DHT22;5262;59.958;17.726;2023-06-05T11:58:23;27.60;36.90
10431;DHT22;5262;59.958;17.726;2023-06-05T12:00:49;27.60;38.20
10431;DHT22;5262;59.958;17.726;2023-06-05T12:03:19;27.70;36.40
10431;DHT22;5262;59.958;17.726;2023-06-05T12:05:46;28.00;36.50
10431;DHT22;5262;59.958;17.726;2023-06-05T12:08:26;27.50;38.50
10431;DHT22;5262;59.958;17.726;2023-06-05T12:10:53;28.00;40.00
10431;DHT22;5262;59.958;17.726;2023-06-05T12:13:19;27.40;36.50
10431;DHT22;5262;59.958;17.726;2023-06-05T12:15:58;27.00;37.90
10431;DHT22;5262;59.958;17.726;2023-06-05T12:18:31;26.60;38.50
10431;DHT22;5262;59.958;17.726;2023-06-05T12:20:58;26.20;38.00
10431;DHT22;5262;59.958;17.726;2023-06-05T12:23:24;25.80;40.70
10431;DHT22;5262;59.958;17.726;2023-06-05T12:26:03;25.70;40.70
10431;DHT22;5262;59.958;17.726;2023-06-05T12:28:30;26.70;39.50
10431;DHT22;5262;59.958;17.726;2023-06-05T12:30:56;26.70;38.80
10431;DHT22;5262;59.958;17.726;2023-06-05T12:33:23;27.00;38.10
10431;DHT22;5262;59.958;17.726;2023-06-05T12:36:07;27.10;38.20
10431;DHT22;5262;59.958;17.726;2023-06-05T12:38:37;27.10;37.40
10431;DHT22;5262;59.958;17.726;2023-06-05T12:41:04;26.70;38.70
10431;DHT22;5262;59.958;17.726;2023-06-05T12:43:32;26.40;40.50
10431;DHT22;5262;59.958;17.726;2023-06-05T12:45:58;26.70;40.70
10431;DHT22;5262;59.958;17.726;2023-06-05T12:48:23;26.50;38.70
10431;DHT22;5262;59.958;17.726;2023-06-05T12:50:50;26.20;38.40
10431;DHT22;5262;59.958;17.726;2023-06-05T12:53:16;26.10;39.40
10431;DHT22;5262;59.958;17.726;2023-06-05T12:55:42;26.10;40.90
10431;DHT22;5262;59.958;17.726;2023-06-05T12:58:07;26.00;39.40
10431;DHT22;5262;59.958;17.726;2023-06-05T13:00:33;25.90;38.60
10431;DHT22;5262;59.958;17.726;2023-06-05T13:02:59;25.90;39.90
10431;DHT22;5262;59.958;17.726;2023-06-05T13:05:25;25.90;38.90
10431;DHT22;5262;59.958;17.726;2023-06-05T13:07:50;25.90;40.20
10431;DHT22;5262;59.958;17.726;2023-06-05T13:10:17;26.00;38.30
10431;DHT22;5262;59.958;17.726;2023-06-05T13:12:43;25.90;39.50
10431;DHT22;5262;59.958;17.726;2023-06-05T13:15:09;25.80;39.20
10431;DHT22;5262;59.958;17.726;2023-06-05T13:17:36;25.80;40.80
10431;DHT22;5262;59.958;17.726;2023-06-05T13:20:04;25.90;39.50
10431;DHT22;5262;59.958;17.726;2023-06-05T13:22:42;25.70;40.80
10431;DHT22;5262;59.958;17.726;2023-06-05T13:25:08;25.90;41.10
10431;DHT22;5262;59.958;17.726;2023-06-05T13:27:35;25.80;40.20
10431;DHT22;5262;59.958;17.726;2023-06-05T13:30:01;25.30;41.60
10431;DHT22;5262;59.958;17.726;2023-06-05T13:32:29;25.20;44.80
10431;DHT22;5262;59.958;17.726;2023-06-05T13:34:55;25.20;44.20
10431;DHT22;5262;59.958;17.726;2023-06-05T13:37:22;25.10;38.90
10431;DHT22;5262;59.958;17.726;2023-06-05T13:39:48;25.10;39.20
10431;DHT22;5262;59.958;17.726;2023-06-05T13:42:13;24.90;40.70
10431;DHT22;5262;59.958;17.726;2023-06-05T13:44:39;24.80;44.30
10431;DHT22;5262;59.958;17.726;2023-06-05T13:47:05;24.80;42.20
10431;DHT22;5262;59.958;17.726;2023-06-05T13:49:34;24.60;42.30
10431;DHT22;5262;59.958;17.726;2023-06-05T13:51:59;24.50;41.90
10431;DHT22;5262;59.958;17.726;2023-06-05T13:54:25;24.30;41.20
10431;DHT22;5262;59.958;17.726;2023-06-05T13:56:50;24.30;42.10
10431;DHT22;5262;59.958;17.726;2023-06-05T13:59:17;24.30;40.90
10431;DHT22;5262;59.958;17.726;2023-06-05T14:01:43;24.20;41.40
10431;DHT22;5262;59.958;17.726;2023-06-05T14:04:09;24.40;41.30
10431;DHT22;5262;59.958;17.726;2023-06-05T14:06:34;24.40;44.30
10431;DHT22;5262;59.958;17.726;2023-06-05T14:09:04;24.30;44.90
10431;DHT22;5262;59.958;17.726;2023-06-05T14:11:30;24.20;44.30
10431;DHT22;5262;59.958;17.726;2023-06-05T14:13:56;24.20;43.70
10431;DHT22;5262;59.958;17.726;2023-06-05T14:16:21;24.10;45.70
10431;DHT22;5262;59.958;17.726;2023-06-05T14:18:47;23.90;47.10
10431;DHT22;5262;59.958;17.726;2023-06-05T14:21:13;24.00;44.90
10431;DHT22;5262;59.958;17.726;2023-06-05T14:23:39;23.90;46.90
10431;DHT22;5262;59.958;17.726;2023-06-05T14:26:05;24.10;43.50
10431;DHT22;5262;59.958;17.726;2023-06-05T14:28:31;24.20;46.80
10431;DHT22;5262;59.958;17.726;2023-06-05T14:30:57;24.20;48.50
10431;DHT22;5262;59.958;17.726;2023-06-05T14:33:22;24.30;44.20
10431;DHT22;5262;59.958;17.726;2023-06-05T14:35:48;24.50;46.10
10431;DHT22;5262;59.958;17.726;2023-06-05T14:38:13;24.60;43.40
10431;DHT22;5262;59.958;17.726;2023-06-05T14:40:40;24.80;46.90
10431;DHT22;5262;59.958;17.726;2023-06-05T14:43:05;24.90;46.70
10431;DHT22;5262;59.958;17.726;2023-06-05T14:45:31;25.10;44.00
10431;DHT22;5262;59.958;17.726;2023-06-05T14:47:57;25.30;43.80
10431;DHT22;5262;59.958;17.726;2023-06-05T14:50:23;25.30;44.00
10431;DHT22;5262;59.958;17.726;2023-06-05T14:52:48;25.00;41.70
10431;DHT22;5262;59.958;17.726;2023-06-05T14:55:14;24.80;43.90
10431;DHT22;5262;59.958;17.726;2023-06-05T14:57:40;24.80;42.10
10431;DHT22;5262;59.958;17.726;2023-06-05T15:00:06;24.80;42.80
10431;DHT22;5262;59.958;17.726;2023-06-05T15:02:34;24.70;44.30
10431;DHT22;5262;59.958;17.726;2023-06-05T15:04:59;24.50;44.90
10431;DHT22;5262;59.958;17.726;2023-06-05T15:07:30;24.50;45.80
10431;DHT22;5262;59.958;17.726;2023-06-05T15:09:59;24.50;46.60
10431;DHT22;5262;59.958;17.726;2023-06-05T15:12:25;24.80;42.40
10431;DHT22;5262;59.958;17.726;2023-06-05T15:14:50;24.70;44.70
10431;DHT22;5262;59.958;17.726;2023-06-05T15:17:16;24.50;45.50
10431;DHT22;5262;59.958;17.726;2023-06-05T15:19:41;24.50;49.60
10431;DHT22;5262;59.958;17.726;2023-06-05T15:22:08;24.50;46.50
10431;DHT22;5262;59.958;17.726;2023-06-05T15:24:33;24.70;47.00
10431;DHT22;5262;59.958;17.726;2023-06-05T15:27:00;24.50;46.60
10431;DHT22;5262;59.958;17.726;2023-06-05T15:29:26;24.40;50.80
10431;DHT22;5262;59.958;17.726;2023-06-05T15:31:52;24.70;49.10
10431;DHT22;5262;59.958;17.726;2023-06-05T15:34:17;24.80;45.60
10431;DHT22;5262;59.958;17.726;2023-06-05T15:36:43;25.00;44.90
10431;DHT22;5262;59.958;17.726;2023-06-05T15:39:10;24.80;49.30
10431;DHT22;5262;59.958;17.726;2023-06-05T15:41:35;24.30;47.20
10431;DHT22;5262;59.958;17.726;2023-06-05T15:44:01;23.70;48.30
10431;DHT22;5262;59.958;17.726;2023-06-05T15:46:28;23.20;48.90
10431;DHT22;5262;59.958;17.726;2023-06-05T15:48:53;23.00;49.30
10431;DHT22;5262;59.958;17.726;2023-06-05T15:51:20;22.60;51.40
10431;DHT22;5262;59.958;17.726;2023-06-05T15:53:45;22.50;50.90
10431;DHT22;5262;59.958;17.726;2023-06-05T15:56:11;22.40;50.50
10431;DHT22;5262;59.958;17.726;2023-06-05T15:58:36;22.10;49.50
10431;DHT22;5262;59.958;17.726;2023-06-05T16:01:02;22.00;51.40
10431;DHT22;5262;59.958;17.726;2023-06-05T16:03:28;21.90;50.00
10431;DHT22;5262;59.958;17.726;2023-06-05T16:05:54;21.90;50.90
10431;DHT22;5262;59.958;17.726;2023-06-05T16:08:20;21.80;50.80
10431;DHT22;5262;59.958;17.726;2023-06-05T16:10:47;21.70;51.90
10431;DHT22;5262;59.958;17.726;2023-06-05T16:13:12;21.70;53.50
10431;DHT22;5262;59.958;17.726;2023-06-05T16:15:39;21.60;52.00
10431;DHT22;5262;59.958;17.726;2023-06-05T16:18:06;21.40;53.00